createdAt,value
2023-01-11T00:00:01.428Z,36.23
2023-01-11T00:02:39.905Z,37.23
2023-01-11T00:05:09.630Z,37.07
2023-01-11T00:07:37.717Z,37.00
2023-01-11T00:10:06.865Z,36.70
2023-01-11T00:12:34.973Z,37.00
2023-01-11T00:15:04.608Z,36.50
2023-01-11T00:17:32.730Z,34.33
2023-01-11T00:20:00.888Z,35.13
2023-01-11T00:22:29.040Z,36.40
2023-01-11T00:24:57.182Z,38.83
2023-01-11T00:27:25.291Z,38.13
2023-01-11T00:29:53.427Z,41.40
2023-01-11T00:32:22.970Z,41.83
2023-01-11T00:34:51.169Z,37.50
2023-01-11T00:37:19.492Z,37.47
2023-01-11T00:39:47.702Z,38.60
2023-01-11T00:42:33.480Z,38.47
2023-01-11T00:45:19.218Z,40.83
2023-01-11T00:48:01.978Z,40.77
2023-01-11T00:50:31.758Z,38.80
2023-01-11T00:53:00.365Z,39.50
2023-01-11T00:55:29.038Z,40.10
2023-01-11T00:57:57.147Z,40.67
2023-01-11T01:00:25.640Z,40.73
2023-01-11T01:02:55.640Z,39.47
2023-01-11T01:05:23.839Z,39.27
2023-01-11T01:07:52.032Z,38.63
2023-01-11T01:10:21.085Z,36.83
2023-01-11T01:13:06.199Z,37.83
2023-01-11T01:15:34.876Z,39.13
2023-01-11T01:18:04.443Z,43.33
2023-01-11T01:20:32.569Z,40.40
2023-01-11T01:23:01.318Z,42.43
2023-01-11T01:25:29.475Z,40.60
2023-01-11T01:27:57.728Z,39.97
2023-01-11T01:30:25.793Z,40.73
2023-01-11T01:32:53.877Z,42.87
2023-01-11T01:35:23.303Z,43.63
2023-01-11T01:37:51.367Z,43.17
2023-01-11T01:40:19.677Z,44.33
2023-01-11T01:42:47.767Z,43.83
2023-01-11T01:45:23.889Z,44.23
2023-01-11T01:47:57.462Z,43.93
2023-01-11T01:50:32.046Z,44.03
2023-01-11T01:53:03.786Z,43.67
2023-01-11T01:55:36.596Z,42.27
2023-01-11T01:58:10.883Z,43.83
2023-01-11T02:00:40.278Z,42.67
2023-01-11T02:03:11.240Z,43.60
2023-01-11T02:05:40.668Z,43.13
2023-01-11T02:08:17.840Z,43.47
2023-01-11T02:10:45.981Z,44.43
2023-01-11T02:13:14.568Z,43.97
2023-01-11T02:15:42.841Z,43.37
2023-01-11T02:18:12.381Z,42.53
2023-01-11T02:21:10.256Z,40.33
2023-01-11T02:23:53.665Z,41.27
2023-01-11T02:26:55.561Z,43.03
2023-01-11T02:29:39.898Z,42.90
2023-01-11T02:32:19.274Z,41.67
2023-01-11T02:34:54.669Z,40.80
2023-01-11T02:37:33.844Z,41.17
2023-01-11T02:40:09.252Z,39.07
2023-01-11T02:42:57.980Z,38.43
2023-01-11T02:45:42.418Z,37.90
2023-01-11T02:48:21.068Z,38.63
2023-01-11T02:50:55.104Z,40.50
2023-01-11T02:53:29.204Z,39.60
2023-01-11T02:56:00.605Z,40.23
2023-01-11T02:58:32.990Z,39.70
2023-01-11T03:01:02.868Z,41.60
2023-01-11T03:03:30.953Z,41.77
2023-01-11T03:06:03.379Z,44.10
2023-01-11T03:09:00.532Z,44.10
2023-01-11T03:12:00.729Z,44.27
2023-01-11T03:14:36.912Z,44.83
2023-01-11T03:17:17.389Z,46.17
2023-01-11T03:19:52.505Z,46.20
2023-01-11T03:22:27.396Z,47.93
2023-01-11T03:25:03.937Z,47.60
2023-01-11T03:27:37.147Z,47.40
2023-01-11T03:30:11.265Z,48.07
2023-01-11T03:32:48.487Z,48.80
2023-01-11T03:35:26.510Z,47.73
2023-01-11T03:38:00.538Z,47.93
2023-01-11T03:40:32.929Z,48.73
2023-01-11T03:43:14.750Z,47.83
2023-01-11T03:45:48.752Z,46.87
2023-01-11T03:48:21.990Z,47.40
2023-01-11T03:50:51.775Z,47.63
2023-01-11T03:53:22.011Z,48.53
2023-01-11T03:55:55.805Z,48.17
2023-01-11T03:58:24.492Z,47.90
2023-01-11T04:00:53.040Z,47.17
2023-01-11T04:03:24.345Z,49.30
2023-01-11T04:05:58.081Z,48.43
2023-01-11T04:08:26.355Z,49.87
2023-01-11T04:10:54.421Z,49.70
2023-01-11T04:13:22.498Z,49.70
2023-01-11T04:15:50.556Z,49.73
2023-01-11T04:18:18.718Z,49.10
2023-01-11T04:20:48.196Z,49.27
2023-01-11T04:23:21.133Z,49.63
2023-01-11T04:25:49.285Z,49.30
2023-01-11T04:28:17.448Z,50.07
2023-01-11T04:30:45.513Z,49.90
2023-01-11T04:33:14.589Z,51.77
2023-01-11T04:35:44.020Z,49.73
2023-01-11T04:38:13.547Z,51.40
2023-01-11T04:40:41.654Z,51.70
2023-01-11T04:43:08.726Z,50.47
2023-01-11T04:45:36.911Z,50.73
2023-01-11T04:48:05.188Z,51.37
2023-01-11T04:50:33.358Z,50.30
2023-01-11T04:53:01.491Z,52.07
2023-01-11T04:55:31.015Z,52.17
2023-01-11T04:57:59.177Z,54.97
2023-01-11T05:00:27.236Z,53.70
2023-01-11T05:02:55.393Z,52.13
2023-01-11T05:05:23.492Z,55.37
2023-01-11T05:07:51.685Z,56.33
2023-01-11T05:10:21.090Z,56.47
2023-01-11T05:12:50.648Z,56.90
2023-01-11T05:15:18.760Z,59.80
2023-01-11T05:17:46.831Z,59.20
2023-01-11T05:20:15.009Z,58.40
2023-01-11T05:22:43.188Z,61.80
2023-01-11T05:25:11.238Z,61.43
2023-01-11T05:27:39.291Z,60.20
2023-01-11T05:30:10.455Z,61.13
2023-01-11T05:32:38.644Z,61.27
2023-01-11T05:35:10.108Z,62.33
2023-01-11T05:37:38.231Z,63.33
2023-01-11T05:40:07.748Z,63.63
2023-01-11T05:42:35.934Z,62.13
2023-01-11T05:45:17.948Z,65.53
2023-01-11T05:47:47.395Z,67.90
2023-01-11T05:50:15.487Z,65.23
2023-01-11T05:52:43.640Z,65.93
2023-01-11T05:55:11.720Z,66.00
2023-01-11T05:57:42.192Z,66.17
2023-01-11T06:00:12.670Z,67.83
2023-01-11T06:02:40.967Z,66.33
2023-01-11T06:05:11.311Z,67.53
2023-01-11T06:07:40.154Z,65.40
2023-01-11T06:10:09.518Z,68.40
2023-01-11T06:12:37.596Z,65.27
2023-01-11T06:15:06.459Z,67.73
2023-01-11T06:17:34.494Z,67.90
2023-01-11T06:20:02.694Z,73.37
2023-01-11T06:22:32.109Z,72.37
2023-01-11T06:25:00.158Z,69.10
2023-01-11T06:27:28.279Z,64.57
2023-01-11T06:29:56.357Z,69.93
2023-01-11T06:32:24.472Z,68.67
2023-01-11T06:34:52.571Z,67.00
2023-01-11T06:37:20.617Z,72.43
2023-01-11T06:39:50.248Z,70.07
2023-01-11T06:42:18.370Z,69.80
2023-01-11T06:44:46.462Z,70.10
2023-01-11T06:47:14.641Z,69.80
2023-01-11T06:49:42.760Z,69.47
2023-01-11T06:52:10.780Z,69.17
2023-01-11T06:54:38.966Z,70.20
2023-01-11T06:57:08.427Z,67.33
2023-01-11T06:59:37.661Z,68.10
2023-01-11T07:02:06.046Z,66.77
2023-01-11T07:04:34.335Z,65.40
2023-01-11T07:07:02.483Z,64.53
2023-01-11T07:09:30.595Z,67.13
2023-01-11T07:11:58.635Z,67.10
2023-01-11T07:14:28.125Z,67.30
2023-01-11T07:16:56.252Z,67.87
2023-01-11T07:19:24.314Z,69.10
2023-01-11T07:21:52.407Z,68.20
2023-01-11T07:24:22.452Z,71.43
2023-01-11T07:26:53.424Z,76.27
2023-01-11T07:29:21.577Z,73.57
2023-01-11T07:31:51.021Z,71.57
2023-01-11T07:34:19.122Z,75.47
2023-01-11T07:36:47.208Z,74.30
2023-01-11T07:39:15.342Z,80.53
2023-01-11T07:42:01.013Z,81.17
2023-01-11T07:44:30.114Z,81.47
2023-01-11T07:46:59.695Z,80.30
2023-01-11T07:49:28.014Z,79.93
2023-01-11T07:51:56.107Z,80.53
2023-01-11T07:54:25.103Z,80.27
2023-01-11T07:56:53.204Z,79.50
2023-01-11T07:59:21.283Z,77.47
2023-01-11T08:01:49.483Z,78.67
2023-01-11T08:04:18.963Z,77.77
2023-01-11T08:06:47.103Z,77.47
2023-01-11T08:09:15.230Z,75.53
2023-01-11T08:12:00.767Z,75.13
2023-01-11T08:14:40.653Z,75.47
2023-01-11T08:17:09.696Z,76.67
2023-01-11T08:19:39.163Z,74.77
2023-01-11T08:22:07.640Z,75.50
2023-01-11T08:24:35.838Z,73.40
2023-01-11T08:27:04.486Z,79.20
2023-01-11T08:29:33.313Z,75.17
2023-01-11T08:32:01.545Z,67.57
2023-01-11T08:34:29.810Z,68.77
2023-01-11T08:37:02.059Z,67.07
2023-01-11T08:39:31.183Z,68.43
2023-01-11T08:41:59.616Z,68.13
2023-01-11T08:44:35.081Z,68.77
2023-01-11T08:47:03.850Z,67.80
2023-01-11T08:49:32.343Z,68.53
2023-01-11T08:52:01.834Z,71.03
2023-01-11T08:54:30.011Z,68.73
2023-01-11T08:56:58.089Z,72.80
2023-01-11T08:59:26.164Z,73.80
2023-01-11T09:01:54.277Z,77.00
2023-01-11T09:04:25.410Z,79.93
2023-01-11T09:06:54.060Z,76.80
2023-01-11T09:09:23.561Z,74.73
2023-01-11T09:11:58.950Z,74.57
2023-01-11T09:14:28.475Z,79.73
2023-01-11T09:16:57.318Z,72.57
2023-01-11T09:19:26.195Z,70.73
2023-01-11T09:21:56.905Z,66.03
2023-01-11T09:24:26.372Z,58.67
2023-01-11T09:26:54.426Z,50.60
2023-01-11T09:29:22.638Z,43.40
2023-01-11T09:31:50.758Z,38.37
2023-01-11T09:34:19.390Z,34.27
2023-01-11T09:36:48.886Z,34.47
2023-01-11T09:39:20.428Z,37.87
2023-01-11T09:42:20.794Z,38.10
2023-01-11T09:44:52.623Z,40.47
2023-01-11T09:47:31.651Z,40.33
2023-01-11T09:50:03.489Z,37.27
2023-01-11T09:52:39.737Z,36.80
2023-01-11T09:55:15.312Z,37.53
2023-01-11T09:57:54.446Z,36.43
2023-01-11T10:00:28.240Z,37.37
2023-01-11T10:03:21.072Z,36.93
2023-01-11T10:06:00.131Z,37.40
2023-01-11T10:18:31.860Z,33.63
2023-01-11T10:18:39.748Z,32.93
2023-01-11T10:20:46.667Z,30.77
2023-01-11T10:23:24.991Z,32.13
2023-01-11T10:25:56.704Z,30.57
2023-01-11T10:28:33.241Z,29.27
2023-01-11T10:31:26.515Z,29.47
2023-01-11T10:34:09.341Z,27.17
2023-01-11T10:37:04.901Z,23.60
2023-01-11T10:39:59.248Z,23.33
2023-01-11T10:42:31.290Z,25.33
2023-01-11T10:45:05.213Z,24.93
2023-01-11T10:47:39.866Z,23.17
2023-01-11T10:50:20.797Z,23.10
2023-01-11T10:52:56.254Z,23.10
2023-01-11T10:55:30.724Z,20.97
2023-01-11T10:58:09.491Z,19.87
2023-01-11T11:00:47.577Z,17.73
2023-01-11T11:03:45.771Z,18.10
2023-01-11T11:06:24.836Z,17.67
2023-01-11T11:08:58.843Z,18.77
2023-01-11T11:11:33.675Z,19.13
2023-01-11T11:14:07.560Z,18.57
2023-01-11T11:16:47.636Z,18.23
2023-01-11T11:19:22.468Z,16.60
2023-01-11T11:21:52.422Z,16.87
2023-01-11T11:24:27.686Z,16.37
2023-01-11T11:27:02.405Z,17.07
2023-01-11T11:29:30.928Z,16.87
2023-01-11T11:32:02.003Z,16.63
2023-01-11T11:34:31.623Z,16.87
2023-01-11T11:37:01.700Z,16.70
2023-01-11T11:39:32.105Z,16.93
2023-01-11T11:42:08.027Z,16.83
2023-01-11T11:44:36.439Z,15.93
2023-01-11T11:47:07.177Z,16.13
2023-01-11T11:49:38.460Z,16.47
2023-01-11T11:52:09.491Z,15.00
2023-01-11T11:54:41.526Z,14.90
2023-01-11T11:57:18.301Z,14.17
2023-01-11T11:59:48.707Z,15.20
2023-01-11T12:02:25.666Z,14.90
2023-01-11T12:04:57.867Z,14.60
2023-01-11T12:07:31.076Z,14.90
2023-01-11T12:10:02.285Z,15.00
2023-01-11T12:12:34.356Z,14.30
2023-01-11T12:15:09.641Z,13.77
2023-01-11T12:17:38.424Z,13.13
2023-01-11T12:20:28.556Z,12.37
2023-01-11T12:23:15.349Z,11.47
2023-01-11T12:25:54.721Z,11.30
2023-01-11T12:28:31.717Z,11.97
2023-01-11T12:31:09.703Z,10.33
2023-01-11T12:33:49.371Z,10.50
2023-01-11T12:36:28.227Z,10.13
2023-01-11T12:39:05.558Z,10.30
2023-01-11T12:41:56.369Z,10.03
2023-01-11T12:44:43.422Z,10.03
2023-01-11T12:47:42.709Z,9.20
2023-01-11T12:50:19.067Z,10.43
2023-01-11T12:53:09.337Z,8.63
2023-01-11T12:55:48.684Z,9.23
2023-01-11T12:58:24.928Z,8.50
2023-01-11T13:01:09.305Z,8.77
2023-01-11T13:04:03.716Z,9.90
2023-01-11T13:06:37.603Z,9.77
2023-01-11T13:09:21.416Z,10.17
2023-01-11T13:11:58.776Z,9.67
2023-01-11T13:14:43.249Z,10.20
2023-01-11T13:17:24.342Z,10.00
2023-01-11T13:20:03.808Z,10.23
2023-01-11T13:22:40.220Z,10.40
2023-01-11T13:25:18.368Z,10.63
2023-01-11T13:27:49.699Z,10.10
2023-01-11T13:30:20.228Z,9.70
2023-01-11T13:32:54.235Z,10.00
2023-01-11T13:35:33.057Z,10.90
2023-01-11T13:38:11.020Z,11.37
2023-01-11T13:40:47.585Z,10.47
2023-01-11T13:43:20.741Z,10.53
2023-01-11T13:45:53.795Z,11.37
2023-01-11T13:48:28.521Z,11.07
2023-01-11T13:51:04.676Z,11.83
2023-01-11T13:53:40.202Z,12.83
2023-01-11T13:56:15.948Z,13.40
2023-01-11T13:58:51.673Z,13.40
2023-01-11T14:01:22.232Z,13.90
2023-01-11T14:03:55.370Z,13.40
2023-01-11T14:06:35.815Z,13.97
2023-01-11T14:09:17.113Z,13.27
2023-01-11T14:11:53.585Z,14.43
2023-01-11T14:14:41.722Z,14.33
2023-01-11T14:17:30.066Z,13.40
2023-01-11T14:20:08.540Z,14.50
2023-01-11T14:22:43.218Z,13.97
2023-01-11T14:25:19.577Z,13.50
2023-01-11T14:28:09.758Z,13.00
2023-01-11T14:31:19.726Z,13.20
2023-01-11T14:34:32.856Z,13.43
2023-01-11T14:37:23.598Z,14.53
2023-01-11T14:40:24.368Z,14.40
2023-01-11T14:43:23.147Z,14.93
2023-01-11T14:46:15.925Z,14.97
2023-01-11T14:48:52.312Z,16.07
2023-01-11T14:51:33.290Z,16.43
2023-01-11T14:54:06.577Z,16.87
2023-01-11T14:56:54.232Z,18.40
2023-01-11T14:59:38.156Z,17.70
2023-01-11T15:02:26.397Z,19.23
2023-01-11T15:05:11.935Z,18.40
2023-01-11T15:07:42.814Z,18.47
2023-01-11T15:10:50.601Z,17.83
2023-01-11T15:13:22.123Z,18.80
2023-01-11T15:16:08.551Z,18.83
2023-01-11T15:18:46.873Z,18.93
2023-01-11T15:21:22.684Z,18.30
2023-01-11T15:23:54.420Z,20.03
2023-01-11T15:26:24.776Z,21.07
2023-01-11T15:28:54.413Z,19.40
2023-01-11T15:31:35.744Z,21.80
2023-01-11T15:34:18.629Z,22.33
2023-01-11T15:36:57.021Z,25.20
2023-01-11T15:39:34.959Z,26.27
2023-01-11T15:42:25.335Z,27.20
2023-01-11T15:45:15.070Z,24.60
2023-01-11T15:48:02.273Z,25.03
2023-01-11T15:50:52.761Z,24.33
2023-01-11T15:53:41.966Z,24.10
2023-01-11T15:56:42.617Z,24.37
2023-01-11T16:00:02.671Z,23.83
2023-01-11T16:03:24.439Z,22.67
2023-01-11T16:05:59.914Z,24.70
2023-01-11T16:08:34.274Z,25.33
2023-01-11T16:11:14.314Z,25.77
2023-01-11T16:14:08.110Z,25.40
2023-01-11T16:16:41.427Z,25.53
2023-01-11T16:19:17.280Z,26.57
2023-01-11T16:21:49.813Z,27.23
2023-01-11T16:24:20.788Z,27.93
2023-01-11T16:26:54.451Z,28.67
2023-01-11T16:29:25.502Z,29.43
2023-01-11T16:31:59.331Z,31.03
2023-01-11T16:34:29.023Z,33.40
2023-01-11T16:36:58.709Z,31.80
2023-01-11T16:39:30.558Z,32.67
2023-01-11T16:42:03.346Z,34.30
2023-01-11T16:44:41.795Z,35.83
2023-01-11T16:47:15.755Z,36.67
2023-01-11T16:49:49.078Z,37.23
2023-01-11T16:52:44.643Z,38.43
2023-01-11T16:55:37.021Z,39.00
2023-01-11T16:58:07.892Z,38.60
2023-01-11T17:00:39.644Z,39.00
2023-01-11T17:03:30.200Z,39.17
2023-01-11T17:06:15.380Z,41.33
2023-01-11T17:08:45.380Z,40.17
2023-01-11T17:11:35.768Z,41.57
2023-01-11T17:14:20.395Z,42.97
2023-01-11T17:16:50.701Z,42.03
2023-01-11T17:19:21.096Z,42.40
2023-01-11T17:21:51.776Z,41.70
2023-01-11T17:24:23.980Z,41.60
2023-01-11T17:26:56.630Z,40.67
2023-01-11T17:29:29.763Z,44.43
2023-01-11T17:31:59.474Z,45.13
2023-01-11T17:34:31.329Z,45.83
2023-01-11T17:37:00.822Z,44.37
2023-01-11T17:39:32.352Z,44.80
2023-01-11T17:42:22.053Z,46.37
2023-01-11T17:45:08.526Z,46.77
2023-01-11T17:47:39.881Z,46.47
2023-01-11T17:50:18.854Z,47.13
2023-01-11T17:52:54.657Z,47.97
2023-01-11T17:55:26.234Z,49.23
2023-01-11T17:58:19.773Z,47.47
2023-01-11T18:01:11.551Z,46.50
2023-01-11T18:03:45.298Z,48.63
2023-01-11T18:06:15.216Z,47.03
2023-01-11T18:08:49.143Z,49.00
2023-01-11T18:11:25.288Z,46.20
2023-01-11T18:13:56.705Z,48.60
2023-01-11T18:16:25.702Z,48.33
2023-01-11T18:18:54.974Z,49.30
2023-01-11T18:21:41.296Z,49.33
2023-01-11T18:24:43.154Z,50.07
2023-01-11T18:27:25.118Z,49.73
2023-01-11T18:29:56.035Z,50.13
2023-01-11T18:32:24.419Z,51.63
2023-01-11T18:34:54.898Z,51.40
2023-01-11T18:37:23.556Z,50.83
2023-01-11T18:39:53.142Z,51.83
2023-01-11T18:42:28.058Z,53.10
2023-01-11T18:44:57.644Z,52.43
2023-01-11T18:47:28.537Z,51.67
2023-01-11T18:49:57.231Z,50.77
2023-01-11T18:52:27.804Z,51.40
2023-01-11T18:54:57.082Z,50.43
2023-01-11T18:57:25.878Z,52.77
2023-01-11T18:59:54.398Z,52.17
2023-01-11T19:02:26.945Z,52.83
2023-01-11T19:04:56.860Z,52.37
2023-01-11T19:07:26.783Z,54.37
2023-01-11T19:09:56.015Z,53.93
2023-01-11T19:12:24.551Z,54.67
2023-01-11T19:14:52.775Z,53.93
2023-01-11T19:17:21.013Z,55.33
2023-01-11T19:19:50.514Z,55.20
2023-01-11T19:22:18.792Z,55.27
2023-01-11T19:24:46.938Z,56.37
2023-01-11T19:27:15.577Z,57.47
2023-01-11T19:29:43.794Z,57.30
2023-01-11T19:32:11.896Z,59.10
2023-01-11T19:34:41.146Z,59.33
2023-01-11T19:37:10.606Z,59.20
2023-01-11T19:39:40.235Z,59.97
2023-01-11T19:42:08.361Z,62.23
2023-01-11T19:44:38.972Z,59.77
2023-01-11T19:47:12.978Z,60.37
2023-01-11T19:49:42.169Z,59.10
2023-01-11T19:52:14.211Z,57.93
2023-01-11T19:54:43.497Z,58.60
2023-01-11T19:57:12.242Z,59.93
2023-01-11T19:59:40.468Z,58.57
2023-01-11T20:02:09.079Z,62.20
2023-01-11T20:04:37.365Z,60.70
2023-01-11T20:07:05.781Z,60.50
2023-01-11T20:09:37.622Z,61.63
2023-01-11T20:12:06.075Z,63.23
2023-01-11T20:14:34.612Z,65.97
2023-01-11T20:17:03.349Z,64.43
2023-01-11T20:19:32.120Z,64.47
2023-01-11T20:22:00.366Z,61.97
2023-01-11T20:24:30.088Z,61.10
2023-01-11T20:27:01.832Z,61.77
2023-01-11T20:29:37.128Z,64.43
2023-01-11T20:32:27.835Z,63.60
2023-01-11T20:34:53.892Z,63.30
2023-01-11T20:37:22.099Z,64.03
2023-01-11T20:39:50.239Z,66.40
2023-01-11T20:42:19.685Z,66.97
2023-01-11T20:44:48.050Z,68.63
2023-01-11T20:47:16.137Z,67.70
2023-01-11T20:49:44.204Z,69.93
2023-01-11T20:52:12.303Z,71.10
2023-01-11T20:54:40.370Z,73.00
2023-01-11T20:57:12.592Z,70.37
2023-01-11T20:59:42.271Z,74.20
2023-01-11T21:02:13.658Z,73.50
2023-01-11T21:04:41.788Z,72.20
2023-01-11T21:07:09.920Z,77.60
2023-01-11T21:09:38.125Z,77.77
2023-01-11T21:12:08.782Z,77.53
2023-01-11T21:14:37.605Z,78.43
2023-01-11T21:17:07.094Z,78.60
2023-01-11T21:19:35.197Z,76.60
2023-01-11T21:22:03.303Z,77.13
2023-01-11T21:24:31.855Z,73.80
2023-01-11T21:26:59.948Z,70.37
2023-01-11T21:29:28.044Z,70.67
2023-01-11T21:31:56.111Z,72.17
2023-01-11T21:34:25.706Z,73.63
2023-01-11T21:36:53.914Z,70.50
2023-01-11T21:39:22.077Z,65.63
2023-01-11T21:41:59.854Z,63.23
2023-01-11T21:44:31.900Z,69.17
2023-01-11T21:47:00.654Z,70.87
2023-01-11T21:49:30.149Z,73.43
2023-01-11T21:51:58.612Z,71.07
2023-01-11T21:54:27.113Z,66.10
2023-01-11T21:56:55.170Z,64.63
2023-01-11T21:59:23.413Z,62.33
2023-01-11T22:01:51.523Z,63.57
2023-01-11T22:04:21.679Z,66.33
2023-01-11T22:06:58.096Z,65.80
2023-01-11T22:09:27.728Z,65.37
2023-01-11T22:11:56.309Z,66.30
2023-01-11T22:14:24.481Z,73.80
2023-01-11T22:16:52.638Z,71.27
2023-01-11T22:19:21.045Z,62.80
2023-01-11T22:21:50.588Z,63.20
2023-01-11T22:24:18.657Z,62.37
2023-01-11T22:26:46.749Z,60.17
2023-01-11T22:29:17.839Z,57.50
2023-01-11T22:31:48.937Z,53.33
2023-01-11T22:34:17.552Z,54.47
2023-01-11T22:36:46.608Z,51.07
2023-01-11T22:39:19.530Z,50.53
2023-01-11T22:41:48.526Z,47.53
2023-01-11T22:44:17.088Z,45.73
2023-01-11T22:46:45.596Z,41.27
2023-01-11T22:49:13.828Z,39.10
2023-01-11T22:51:42.620Z,40.57
2023-01-11T22:54:11.829Z,34.43
2023-01-11T22:56:41.902Z,39.80
2023-01-11T22:59:10.280Z,44.67
2023-01-11T23:01:40.375Z,50.83
2023-01-11T23:04:11.467Z,53.13
2023-01-11T23:06:41.840Z,53.23
2023-01-11T23:09:15.946Z,42.63
2023-01-11T23:12:04.310Z,39.03
2023-01-11T23:14:33.802Z,29.97
2023-01-11T23:17:05.168Z,37.43
2023-01-11T23:19:33.496Z,41.77
2023-01-11T23:22:01.623Z,42.83
2023-01-11T23:24:29.906Z,41.10
2023-01-11T23:26:59.615Z,39.27
2023-01-11T23:29:27.902Z,40.63
2023-01-11T23:31:56.066Z,39.20
2023-01-11T23:34:24.456Z,39.57
2023-01-11T23:36:52.504Z,37.63
2023-01-11T23:39:20.866Z,35.47
2023-01-11T23:42:06.375Z,33.60
2023-01-11T23:44:36.307Z,35.57
2023-01-11T23:47:21.551Z,34.63
2023-01-11T23:49:50.655Z,36.17
2023-01-11T23:52:19.584Z,37.17
2023-01-11T23:54:47.809Z,36.37
2023-01-11T23:57:17.180Z,39.27
2023-01-11T23:59:46.863Z,38.77
